Time;durP1;ratioP1;P1;durP2;ratioP2;P2;SDS_P1;SDS_P2;PMS_P1;PMS_P2;Temp;Humidity;BMP_temperature;BMP_pressure;BME280_temperature;BME280_humidity;BME280_pressure;Samples;Min_cycle;Max_cycle;Signal;HPM_P1;HPM_P2
2024/01/17 00:00:35;;;;;;;1.40;1.40;;;;;;;-8.14;86.37;97315.88;6136317;23;20014;-90
2024/01/17 00:03:01;;;;;;;;;;;;;;;-8.08;86.51;97313.75;6133410;23;20345;-91
2024/01/17 00:05:27;;;;;;;1.40;1.40;;;;;;;-7.86;85.94;97304.25;6157432;23;19944;-90
2024/01/17 00:07:52;;;;;;;1.20;1.20;;;;;;;-7.84;85.93;97294.94;6158631;23;20442;-88
2024/01/17 00:10:18;;;;;;;1.20;1.20;;;;;;;-7.96;86.21;97285.31;6133784;23;20680;-90
2024/01/17 00:12:44;;;;;;;1.40;1.40;;;;;;;-7.93;85.71;97277.81;6158484;23;20028;-91
2024/01/17 00:15:10;;;;;;;1.30;1.30;;;;;;;-7.97;86.70;97276.66;6135761;23;20013;-90
2024/01/17 00:17:35;;;;;;;1.30;1.30;;;;;;;-7.91;86.79;97266.75;6160039;23;20048;-90
2024/01/17 00:20:01;;;;;;;1.40;1.40;;;;;;;-7.93;86.84;97262.28;6134523;23;20013;-90
2024/01/17 00:22:28;;;;;;;1.30;1.30;;;;;;;-7.90;86.88;97267.69;6135640;23;20030;-90
2024/01/17 00:24:54;;;;;;;1.30;1.30;;;;;;;-7.98;87.06;97280.03;6135998;23;20025;-90
2024/01/17 00:27:23;;;;;;;1.30;1.30;;;;;;;-7.92;87.10;97283.09;6133946;23;20013;-90
2024/01/17 00:29:51;;;;;;;1.38;1.38;;;;;;;-7.81;86.91;97270.94;6133963;23;20092;-91
2024/01/17 00:32:18;;;;;;;1.20;1.20;;;;;;;-7.73;86.85;97262.06;6134757;23;20013;-89
2024/01/17 00:34:45;;;;;;;1.30;1.30;;;;;;;-7.85;86.95;97263.75;6160292;23;20014;-92
2024/01/17 00:37:12;;;;;;;1.30;1.30;;;;;;;-7.68;86.78;97254.66;6160258;23;20068;-89
2024/01/17 00:39:38;;;;;;;1.20;1.20;;;;;;;-7.70;86.58;97257.16;6135524;23;20696;-90
2024/01/17 00:42:03;;;;;;;1.30;1.30;;;;;;;-7.66;86.72;97256.59;6136467;23;20018;-91
2024/01/17 00:44:29;;;;;;;1.23;1.23;;;;;;;-7.64;86.49;97259.28;6137020;23;20051;-89
2024/01/17 00:46:55;;;;;;;1.30;1.30;;;;;;;-7.65;86.59;97252.31;6138187;23;20021;-90
2024/01/17 00:49:20;;;;;;;1.20;1.20;;;;;;;-7.59;86.77;97252.75;6138515;23;20065;-89
2024/01/17 00:51:49;;;;;;;1.20;1.20;;;;;;;-7.70;86.84;97257.16;6166728;23;20057;-89
2024/01/17 00:54:15;;;;;;;1.20;1.20;;;;;;;-7.71;87.01;97239.81;6144599;23;20048;-90
2024/01/17 00:56:40;;;;;;;1.20;1.20;;;;;;;-7.69;87.16;97233.03;6174156;23;20005;-88
2024/01/17 00:59:05;;;;;;;1.30;1.30;;;;;;;-7.49;86.79;97231.94;6151490;23;20028;-91
2024/01/17 01:01:31;;;;;;;1.20;1.20;;;;;;;-7.28;86.28;97230.91;6174811;23;20093;-92
2024/01/17 01:03:57;;;;;;;1.30;1.30;;;;;;;-7.26;86.22;97231.03;6149044;23;20012;-91
2024/01/17 01:06:23;;;;;;;1.40;1.40;;;;;;;-7.25;86.34;97235.41;6144965;23;20013;-90
2024/01/17 01:08:49;;;;;;;1.30;1.30;;;;;;;-7.16;86.53;97246.44;6145656;23;20029;-90
2024/01/17 01:11:14;;;;;;;1.30;1.30;;;;;;;-7.14;86.58;97246.53;6140622;23;20016;-91
2024/01/17 01:13:40;;;;;;;1.38;1.38;;;;;;;-7.17;86.82;97236.88;6138678;23;20013;-90
2024/01/17 01:16:09;;;;;;;1.20;1.20;;;;;;;-6.97;86.20;97217.56;6138285;23;20001;-89
2024/01/17 01:18:36;;;;;;;1.30;1.30;;;;;;;-6.89;86.23;97213.84;6147275;23;20028;-90
2024/01/17 01:21:01;;;;;;;1.30;1.30;;;;;;;-6.80;85.91;97209.31;6176263;23;20010;-90
2024/01/17 01:23:27;;;;;;;1.30;1.30;;;;;;;-7.01;85.49;97216.44;6150244;23;20001;-91
2024/01/17 01:25:53;;;;;;;1.30;1.30;;;;;;;-7.16;85.85;97220.53;6175170;23;20060;-91
2024/01/17 01:28:19;;;;;;;1.30;1.30;;;;;;;-6.93;86.66;97226.47;6142190;23;20009;-91
2024/01/17 01:30:47;;;;;;;1.30;1.30;;;;;;;-6.91;86.50;97225.78;6140751;23;20070;-90
2024/01/17 01:33:14;;;;;;;1.30;1.30;;;;;;;-7.05;86.40;97229.06;6142507;23;20017;-92
2024/01/17 01:35:39;;;;;;;1.30;1.30;;;;;;;-7.04;85.92;97223.09;6141085;23;20037;-89
2024/01/17 01:38:04;;;;;;;1.30;1.30;;;;;;;-7.00;86.49;97226.00;6138537;23;20013;-89
2024/01/17 01:40:31;;;;;;;1.30;1.30;;;;;;;-7.02;87.13;97227.59;6165134;23;20013;-90
2024/01/17 01:43:00;;;;;;;1.40;1.40;;;;;;;-6.83;86.82;97222.03;6165668;23;20016;-91
2024/01/17 01:45:25;;;;;;;1.30;1.30;;;;;;;-6.80;86.90;97218.78;6137714;23;20037;-90
2024/01/17 01:47:53;;;;;;;1.40;1.40;;;;;;;-6.39;86.39;97219.06;6160383;23;20017;-91
2024/01/17 01:50:19;;;;;;;1.40;1.40;;;;;;;-6.56;85.67;97204.94;6132933;23;20013;-90
2024/01/17 01:52:49;;;;;;;1.20;1.20;;;;;;;-6.54;85.77;97208.53;6156850;23;20033;-89
2024/01/17 01:55:15;;;;;;;1.30;1.30;;;;;;;-6.50;85.98;97196.66;6135176;23;20021;-90
2024/01/17 01:57:49;;;;;;;1.30;1.30;;;;;;;-6.53;85.45;97179.19;6163759;23;20064;-89
2024/01/17 02:00:17;;;;;;;1.35;1.35;;;;;;;-6.55;85.45;97166.94;6135100;23;20606;-92
2024/01/17 02:02:45;;;;;;;1.30;1.30;;;;;;;-6.48;86.06;97166.53;6157209;23;20024;-92
2024/01/17 02:05:11;;;;;;;1.30;1.30;;;;;;;-6.30;86.21;97153.94;6132957;23;20235;-89
2024/01/17 02:07:37;;;;;;;1.30;1.30;;;;;;;-6.37;85.70;97152.63;6133775;23;20001;-89
2024/01/17 02:10:04;;;;;;;1.30;1.30;;;;;;;-6.38;85.54;97145.63;6132430;23;20070;-89
2024/01/17 02:12:30;;;;;;;1.30;1.30;;;;;;;-6.07;85.93;97138.22;6131008;23;20068;-90
2024/01/17 02:14:56;;;;;;;1.30;1.30;;;;;;;-5.88;85.78;97129.00;6129721;23;20028;-90
2024/01/17 02:17:22;;;;;;;1.20;1.20;;;;;;;-5.85;85.48;97117.09;6106606;23;20014;-89
2024/01/17 02:19:47;;;;;;;1.20;1.20;;;;;;;-5.87;86.01;97115.22;6131211;23;20013;-90
2024/01/17 02:22:13;;;;;;;1.30;1.30;;;;;;;-5.92;86.03;97103.69;6132290;23;20022;-88
2024/01/17 02:24:38;;;;;;;1.20;1.20;;;;;;;-5.97;85.88;97109.47;6131930;23;20233;-90
2024/01/17 02:27:04;;;;;;;1.30;1.30;;;;;;;-5.96;86.30;97107.75;6131918;23;20049;-90
2024/01/17 02:29:30;;;;;;;1.30;1.30;;;;;;;-5.99;86.56;97105.88;6131702;23;20036;-91
2024/01/17 02:31:56;;;;;;;1.30;1.30;;;;;;;-6.13;86.31;97103.13;6156589;23;20013;-91
2024/01/17 02:34:22;;;;;;;1.40;1.40;;;;;;;-5.98;87.25;97099.00;6132443;23;20087;-89
2024/01/17 02:36:47;;;;;;;1.30;1.30;;;;;;;-5.85;87.13;97100.63;6156977;23;20009;-90
2024/01/17 02:39:15;;;;;;;1.30;1.30;;;;;;;-5.75;86.63;97103.94;6156404;23;20018;-90
2024/01/17 02:41:43;;;;;;;1.20;1.20;;;;;;;-5.72;85.26;97098.03;6131216;23;20010;-89
2024/01/17 02:44:08;;;;;;;1.30;1.30;;;;;;;-5.66;85.51;97095.81;6155227;23;20063;-89
2024/01/17 02:46:34;;;;;;;1.30;1.30;;;;;;;-5.63;85.29;97090.84;6154849;23;20045;-91
2024/01/17 02:48:59;;;;;;;1.30;1.30;;;;;;;-5.58;86.16;97088.53;6128743;23;20323;-89
2024/01/17 02:51:24;;;;;;;1.30;1.30;;;;;;;-5.40;86.34;97076.72;6131382;23;20500;-89
2024/01/17 02:53:50;;;;;;;1.30;1.30;;;;;;;-5.39;85.46;97072.44;6135400;23;20009;-91
2024/01/17 02:56:16;;;;;;;1.30;1.30;;;;;;;-5.48;84.85;97078.81;6158421;23;20010;-89
2024/01/17 02:58:42;;;;;;;1.30;1.30;;;;;;;-5.40;85.56;97071.53;6132840;23;20398;-90
2024/01/17 03:01:08;;;;;;;1.30;1.30;;;;;;;-5.44;84.88;97065.22;6157891;23;20013;-92
2024/01/17 03:03:34;;;;;;;1.30;1.30;;;;;;;-5.31;86.62;97066.91;6133692;23;20337;-90
2024/01/17 03:06:00;;;;;;;1.30;1.30;;;;;;;-5.52;84.86;97060.34;6158173;23;20104;-93
2024/01/17 03:08:25;;;;;;;1.30;1.30;;;;;;;-5.44;86.12;97056.53;6169029;23;20236;-92
2024/01/17 03:10:50;;;;;;;1.30;1.30;;;;;;;-5.51;84.48;97063.06;6151135;23;20005;-92
2024/01/17 03:13:16;;;;;;;1.30;1.30;;;;;;;-5.60;84.80;97051.19;6151877;23;20044;-91
2024/01/17 03:15:41;;;;;;;1.30;1.30;;;;;;;-5.40;85.77;97050.75;6153300;23;20005;-90
2024/01/17 03:18:13;;;;;;;1.30;1.30;;;;;;;-5.31;86.00;97053.91;6165466;23;20060;-89
2024/01/17 03:20:40;;;;;;;1.30;1.30;;;;;;;-5.23;85.52;97038.78;6135800;23;20024;-90
2024/01/17 03:23:06;;;;;;;1.30;1.30;;;;;;;-5.04;85.82;97038.22;6134091;23;20072;-90
2024/01/17 03:25:34;;;;;;;1.30;1.30;;;;;;;-5.09;84.97;97032.72;6160060;23;20005;-89
2024/01/17 03:28:00;;;;;;;1.20;1.20;;;;;;;-5.03;85.04;97024.41;6139288;23;20005;-88
2024/01/17 03:30:25;;;;;;;1.25;1.25;;;;;;;-4.91;85.34;97023.47;6164265;23;20032;-88
2024/01/17 03:32:51;;;;;;;1.25;1.25;;;;;;;-4.87;85.19;97008.06;6138358;23;20017;-89
2024/01/17 03:35:17;;;;;;;1.30;1.30;;;;;;;-4.98;85.45;97000.50;6139037;23;20072;-90
2024/01/17 03:37:43;;;;;;;1.30;1.30;;;;;;;-4.96;86.60;97001.47;6135173;23;20155;-90
2024/01/17 03:40:09;;;;;;;1.30;1.30;;;;;;;-5.02;85.00;96998.53;6134438;23;20014;-90
2024/01/17 03:42:35;;;;;;;1.20;1.20;;;;;;;-4.79;85.34;96992.09;6160289;23;20006;-89
2024/01/17 03:45:01;;;;;;;1.20;1.20;;;;;;;-4.78;85.17;96987.78;6157288;23;20044;-94
2024/01/17 03:47:27;;;;;;;1.25;1.25;;;;;;;-4.72;86.19;96986.44;6148089;23;20023;-90
2024/01/17 03:49:56;;;;;;;1.30;1.30;;;;;;;-4.63;85.80;96982.59;6157100;23;20473;-90
2024/01/17 03:52:22;;;;;;;1.20;1.20;;;;;;;-4.78;86.20;96985.19;6131873;23;20342;-90
2024/01/17 03:54:47;;;;;;;1.30;1.30;;;;;;;-4.74;86.34;96982.88;6156720;23;20434;-88
2024/01/17 03:57:13;;;;;;;1.25;1.25;;;;;;;-4.74;86.77;96976.78;6154599;23;20064;-89
2024/01/17 03:59:43;;;;;;;1.30;1.30;;;;;;;-4.73;86.05;96973.34;6154986;23;20017;-88
2024/01/17 04:02:09;;;;;;;1.20;1.20;;;;;;;-4.58;86.14;96979.47;6153988;23;20017;-88
2024/01/17 04:04:34;;;;;;;1.20;1.20;;;;;;;-4.54;85.59;96978.84;6155971;23;20520;-89
2024/01/17 04:07:00;;;;;;;1.30;1.30;;;;;;;-4.62;85.65;96972.28;6130965;23;20013;-89
2024/01/17 04:09:26;;;;;;;1.30;1.30;;;;;;;-4.59;84.92;96972.47;6156518;23;20006;-89
2024/01/17 04:11:52;;;;;;;1.20;1.20;;;;;;;-4.64;85.00;96960.91;6154225;23;20100;-90
2024/01/17 04:14:18;;;;;;;1.20;1.20;;;;;;;-4.48;86.80;96954.88;6130616;23;20005;-90
2024/01/17 04:16:44;;;;;;;1.20;1.20;;;;;;;-4.40;86.76;96956.22;6131077;23;20113;-89
2024/01/17 04:19:09;;;;;;;1.25;1.25;;;;;;;-4.32;86.56;96954.03;6131907;23;20005;-90
2024/01/17 04:21:37;;;;;;;1.20;1.20;;;;;;;-4.18;86.12;96940.09;6131743;23;20469;-90
2024/01/17 04:24:03;;;;;;;1.30;1.30;;;;;;;-4.03;85.83;96927.94;6130960;23;20067;-90
2024/01/17 04:26:31;;;;;;;1.20;1.20;;;;;;;-4.01;86.66;96909.81;6156679;23;20017;-88
2024/01/17 04:28:57;;;;;;;1.20;1.20;;;;;;;-3.95;87.17;96910.13;6130997;23;20321;-89
2024/01/17 04:31:26;;;;;;;1.20;1.20;;;;;;;-3.69;86.62;96901.13;6131200;23;20481;-88
2024/01/17 04:33:53;;;;;;;1.20;1.20;;;;;;;-3.66;87.50;96881.34;6130976;23;20001;-89
2024/01/17 04:36:20;;;;;;;1.20;1.20;;;;;;;-3.66;86.29;96877.84;6130960;23;20434;-89
2024/01/17 04:38:45;;;;;;;;;;;;;;;-3.72;87.36;96877.53;6132414;23;20002;-90
2024/01/17 04:41:12;;;;;;;1.25;1.25;;;;;;;-3.70;86.61;96870.66;6158609;23;19914;-88
2024/01/17 04:43:42;;;;;;;1.20;1.20;;;;;;;-3.67;86.83;96855.22;6135455;23;20013;-89
2024/01/17 04:46:12;;;;;;;1.20;1.20;;;;;;;-3.64;85.95;96850.16;6135423;23;20010;-89
2024/01/17 04:48:38;;;;;;;1.20;1.20;;;;;;;-3.49;87.26;96845.75;6134938;23;20017;-91
2024/01/17 04:51:06;;;;;;;1.20;1.20;;;;;;;-3.55;86.70;96841.91;6134175;23;20017;-89
2024/01/17 04:53:33;;;;;;;1.20;1.20;;;;;;;-3.45;87.09;96845.13;6160859;23;20017;-90
2024/01/17 04:55:59;;;;;;;1.27;1.27;;;;;;;-3.36;87.87;96842.06;6159203;23;20011;-88
2024/01/17 04:58:26;;;;;;;1.20;1.20;;;;;;;-3.34;86.89;96835.22;6159987;23;20017;-90
2024/01/17 05:00:52;;;;;;;1.20;1.20;;;;;;;-3.37;86.80;96835.97;6135371;23;20064;-88
2024/01/17 05:03:20;;;;;;;1.20;1.20;;;;;;;-3.48;87.25;96829.31;6162090;23;20013;-89
2024/01/17 05:05:46;;;;;;;1.20;1.20;;;;;;;-3.48;86.92;96816.28;6136511;23;20021;-89
2024/01/17 05:08:12;;;;;;;1.20;1.20;;;;;;;-3.43;87.66;96817.41;6136410;23;20418;-88
2024/01/17 05:10:44;;;;;;;1.13;1.13;;;;;;;-3.40;87.91;96817.56;6162086;23;19998;-89
2024/01/17 05:13:10;;;;;;;1.10;1.10;;;;;;;-3.33;88.43;96810.06;6137075;23;20033;-88
2024/01/17 05:15:36;;;;;;;1.15;1.15;;;;;;;-3.32;87.72;96811.84;6137784;23;20103;-89
2024/01/17 05:18:02;;;;;;;1.20;1.20;;;;;;;-3.17;87.50;96796.97;6161046;23;20014;-88
2024/01/17 05:20:27;;;;;;;1.20;1.20;;;;;;;-3.15;87.89;96792.75;6162523;23;20005;-89
2024/01/17 05:22:53;;;;;;;1.20;1.20;;;;;;;-3.12;88.32;96780.72;6146659;23;20021;-91
2024/01/17 05:25:18;;;;;;;1.20;1.20;;;;;;;-3.04;88.00;96785.44;6177150;23;20061;-91
2024/01/17 05:27:51;;;;;;;1.17;1.17;;;;;;;-3.08;88.66;96775.66;6149924;23;20005;-89
2024/01/17 05:30:20;;;;;;;1.20;1.20;;;;;;;-3.03;88.80;96762.03;6148066;23;20410;-89
2024/01/17 05:32:46;;;;;;;1.20;1.20;;;;;;;-2.94;88.14;96753.78;6174830;23;20017;-88
2024/01/17 05:35:12;;;;;;;1.20;1.20;;;;;;;-2.91;88.42;96744.38;6143164;23;20337;-89
2024/01/17 05:37:40;;;;;;;1.20;1.20;;;;;;;-2.81;88.70;96735.28;6162253;23;20513;-89
2024/01/17 05:40:08;;;;;;;1.20;1.20;;;;;;;-2.95;88.85;96721.56;6160802;23;20076;-88
2024/01/17 05:42:34;;;;;;;1.20;1.20;;;;;;;-2.84;89.46;96724.69;6160615;23;20022;-90
2024/01/17 05:45:00;;;;;;;1.20;1.20;;;;;;;-2.73;89.18;96718.28;6137065;23;20036;-89
2024/01/17 05:47:25;;;;;;;1.20;1.20;;;;;;;-2.60;89.67;96704.09;6136380;23;20018;-88
2024/01/17 05:49:51;;;;;;;1.20;1.20;;;;;;;-2.50;89.45;96690.63;6136401;23;20015;-90
2024/01/17 05:52:17;;;;;;;1.20;1.20;;;;;;;-2.44;89.49;96690.94;6141726;23;20054;-89
2024/01/17 05:54:44;;;;;;;1.10;1.10;;;;;;;-2.28;89.64;96682.06;6160376;23;20005;-89
2024/01/17 05:57:09;;;;;;;1.10;1.10;;;;;;;-2.11;89.09;96672.34;6159533;23;20020;-90
2024/01/17 05:59:35;;;;;;;1.20;1.20;;;;;;;-1.99;89.17;96667.69;6134386;23;20005;-88
2024/01/17 06:02:00;;;;;;;1.20;1.20;;;;;;;-2.11;89.64;96654.06;6133470;23;20018;-89
2024/01/17 06:04:26;;;;;;;1.10;1.10;;;;;;;-2.18;90.15;96650.31;6133696;23;20017;-89
2024/01/17 06:06:53;;;;;;;1.20;1.20;;;;;;;-2.05;90.35;96651.75;6157736;23;20028;-90
2024/01/17 06:09:18;;;;;;;1.00;1.00;;;;;;;-1.93;90.35;96638.31;6132710;23;20020;-89
2024/01/17 06:11:46;;;;;;;1.20;1.20;;;;;;;-1.86;89.97;96632.53;6133336;23;20017;-89
2024/01/17 06:14:11;;;;;;;1.20;1.20;;;;;;;-1.99;90.24;96633.72;6133119;23;20013;-89
2024/01/17 06:16:37;;;;;;;1.10;1.10;;;;;;;-1.93;90.60;96622.63;6131729;23;20027;-88
2024/01/17 06:19:05;;;;;;;1.20;1.20;;;;;;;-1.88;90.65;96611.56;6131487;23;20343;-89
2024/01/17 06:21:30;;;;;;;1.10;1.10;;;;;;;-1.93;90.59;96610.47;6156379;23;20418;-88
2024/01/17 06:23:55;;;;;;;1.10;1.10;;;;;;;-1.72;91.00;96605.28;6156704;23;20021;-88
2024/01/17 06:26:21;;;;;;;1.20;1.20;;;;;;;-1.63;90.70;96599.50;6156481;23;20013;-88
2024/01/17 06:28:46;;;;;;;1.10;1.10;;;;;;;-1.44;90.20;96578.50;6132648;23;20398;-89
2024/01/17 06:31:25;;;;;;;1.20;1.20;;;;;;;-1.19;89.44;96572.56;6157758;23;20009;-89
2024/01/17 06:33:54;;;;;;;1.20;1.20;;;;;;;-1.27;89.42;96579.19;6158663;23;20014;-90
2024/01/17 06:36:20;;;;;;;1.20;1.20;;;;;;;-1.43;89.80;96579.44;6156696;23;20037;-89
2024/01/17 06:38:46;;;;;;;1.13;1.13;;;;;;;-1.42;90.06;96581.22;6158054;23;20010;-89
2024/01/17 06:41:11;;;;;;;1.20;1.20;;;;;;;-1.46;90.63;96569.72;6106942;23;20025;-90
2024/01/17 06:43:37;;;;;;;1.10;1.10;;;;;;;-1.34;90.63;96570.22;6156472;23;20064;-89
2024/01/17 06:46:03;;;;;;;1.10;1.10;;;;;;;-1.43;91.03;96568.97;6157922;23;20013;-89
2024/01/17 06:48:30;;;;;;;1.20;1.20;;;;;;;-1.38;90.73;96577.91;6164939;23;20002;-92
2024/01/17 06:50:56;;;;;;;1.13;1.13;;;;;;;-1.32;91.07;96578.13;6157517;23;20438;-90
2024/01/17 06:53:22;;;;;;;1.10;1.10;;;;;;;-1.22;90.96;96568.91;6156944;23;20044;-91
2024/01/17 06:55:48;;;;;;;1.10;1.10;;;;;;;-1.21;90.51;96562.84;6157724;23;20020;-92
2024/01/17 06:58:14;;;;;;;1.20;1.20;;;;;;;-1.13;90.36;96564.06;6156939;23;20121;-91
2024/01/17 07:00:42;;;;;;;1.10;1.10;;;;;;;-1.19;89.90;96554.25;6157596;23;20014;-91
2024/01/17 07:03:07;;;;;;;1.10;1.10;;;;;;;-1.37;90.41;96541.31;6132839;23;20017;-90
2024/01/17 07:05:34;;;;;;;1.10;1.10;;;;;;;-1.09;90.32;96548.53;6157591;23;20100;-90
2024/01/17 07:07:59;;;;;;;1.10;1.10;;;;;;;-1.08;88.34;96541.56;6156299;23;20342;-89
2024/01/17 07:10:25;;;;;;;1.20;1.20;;;;;;;-1.38;87.73;96536.03;6131209;23;20265;-90
2024/01/17 07:12:51;;;;;;;1.10;1.10;;;;;;;-1.48;88.69;96540.03;6131301;23;20017;-89
2024/01/17 07:15:17;;;;;;;1.20;1.20;;;;;;;-1.33;88.56;96530.16;6132968;23;20005;-90
2024/01/17 07:17:44;;;;;;;1.20;1.20;;;;;;;-1.20;87.98;96530.63;6131975;23;20013;-91
2024/01/17 07:20:16;;;;;;;1.20;1.20;;;;;;;-1.12;86.88;96522.25;6157100;23;20010;-91
2024/01/17 07:22:44;;;;;;;;;;;;;;;-1.00;87.07;96519.22;6157922;23;20020;-92
2024/01/17 07:25:14;;;;;;;1.20;1.20;;;;;;;-1.12;87.00;96516.13;6157076;23;19908;-90
2024/01/17 07:27:45;;;;;;;1.10;1.10;;;;;;;-1.08;87.35;96507.56;6133243;23;20013;-92
2024/01/17 07:30:12;;;;;;;1.10;1.10;;;;;;;-0.96;87.73;96500.16;6134025;23;20100;-91
2024/01/17 07:32:40;;;;;;;1.10;1.10;;;;;;;-1.10;88.51;96497.03;6134117;23;20528;-92
2024/01/17 07:35:06;;;;;;;1.20;1.20;;;;;;;-1.23;89.00;96493.91;6109401;23;20018;-91
2024/01/17 07:37:35;;;;;;;1.20;1.20;;;;;;;-1.09;88.66;96495.31;6134692;23;20021;-94
2024/01/17 07:40:00;;;;;;;1.00;1.00;;;;;;;-1.05;88.42;96495.50;6132726;23;20024;-91
2024/01/17 07:42:26;;;;;;;1.10;1.10;;;;;;;-1.02;88.76;96484.22;6159115;23;20021;-90
2024/01/17 07:44:51;;;;;;;1.10;1.10;;;;;;;-1.11;88.78;96483.88;6135904;23;20041;-92
2024/01/17 07:47:18;;;;;;;1.10;1.10;;;;;;;-1.18;89.42;96484.50;6138871;23;20026;-92
2024/01/17 07:49:45;;;;;;;1.20;1.20;;;;;;;-1.23;90.14;96468.63;6157708;23;20025;-92
2024/01/17 07:52:13;;;;;;;1.10;1.10;;;;;;;-1.07;90.73;96470.09;6159808;23;20041;-91
2024/01/17 07:54:39;;;;;;;1.08;1.08;;;;;;;-0.77;89.51;96462.44;6159626;23;20005;-92
2024/01/17 07:57:06;;;;;;;1.20;1.20;;;;;;;-0.72;89.21;96460.00;6148813;23;20029;-92
2024/01/17 08:00:06;;;;;;;1.10;1.10;;;;;;;-0.59;89.36;96459.59;6166928;23;20751;-92
2024/01/17 08:02:39;;;;;;;1.10;1.10;;;;;;;-0.52;89.50;96457.28;6162285;23;20108;-90
2024/01/17 08:05:07;;;;;;;1.10;1.10;;;;;;;-0.39;89.58;96460.28;6157140;23;20013;-89
2024/01/17 08:07:33;;;;;;;1.10;1.10;;;;;;;-0.30;89.39;96456.25;6156461;23;20020;-90
2024/01/17 08:09:59;;;;;;;1.20;1.20;;;;;;;-0.43;89.58;96450.53;6131231;23;20255;-91
2024/01/17 08:12:26;;;;;;;1.10;1.10;;;;;;;-0.43;90.59;96455.78;6131686;23;20064;-89
2024/01/17 08:14:53;;;;;;;1.10;1.10;;;;;;;-0.37;90.38;96453.41;6179521;23;20013;-89
2024/01/17 08:17:18;;;;;;;1.10;1.10;;;;;;;-0.21;90.43;96452.19;6132806;23;20064;-88
2024/01/17 08:19:43;;;;;;;1.10;1.10;;;;;;;-0.13;90.31;96448.09;6131309;23;20009;-88
2024/01/17 08:22:12;;;;;;;1.10;1.10;;;;;;;-0.27;90.45;96435.41;6132161;23;20017;-90
2024/01/17 08:24:41;;;;;;;1.10;1.10;;;;;;;-0.12;90.95;96436.78;6161671;23;20041;-89
2024/01/17 08:27:07;;;;;;;1.10;1.10;;;;;;;-0.14;91.09;96438.47;6158744;23;20681;-87
2024/01/17 08:29:34;;;;;;;1.10;1.10;;;;;;;-0.07;90.92;96424.72;6157041;23;20018;-88
2024/01/17 08:32:00;;;;;;;1.20;1.20;;;;;;;-0.07;91.12;96420.34;6153733;23;20017;-87
2024/01/17 08:34:25;;;;;;;1.10;1.10;;;;;;;-0.05;91.54;96423.94;6128979;23;20390;-86
2024/01/17 08:36:54;;;;;;;1.10;1.10;;;;;;;0.02;91.65;96425.00;6152161;23;20017;-89
2024/01/17 08:39:20;;;;;;;1.10;1.10;;;;;;;-0.05;91.70;96423.94;6127907;23;20016;-89
2024/01/17 08:41:47;;;;;;;1.10;1.10;;;;;;;-0.05;92.17;96413.44;6126158;23;20017;-87
2024/01/17 08:44:15;;;;;;;1.20;1.20;;;;;;;0.06;92.28;96413.78;6149626;23;20450;-88
2024/01/17 08:46:43;;;;;;;1.10;1.10;;;;;;;0.18;91.93;96400.16;6127052;23;20021;-86
2024/01/17 08:49:08;;;;;;;1.10;1.10;;;;;;;0.21;92.15;96393.28;6153173;23;20017;-87
2024/01/17 08:51:33;;;;;;;1.10;1.10;;;;;;;0.17;92.39;96387.91;6126144;23;20014;-87
2024/01/17 08:53:59;;;;;;;1.10;1.10;;;;;;;0.34;92.44;96380.56;6125819;23;20096;-88
2024/01/17 08:56:24;;;;;;;1.00;1.00;;;;;;;0.32;92.38;96374.38;6125524;23;20346;-87
2024/01/17 08:58:50;;;;;;;1.10;1.10;;;;;;;0.95;94.55;96369.22;6150805;23;20013;-88
2024/01/17 09:01:15;;;;;;;1.10;1.10;;;;;;;1.85;92.76;96365.44;6150946;23;20493;-87
2024/01/17 09:03:43;;;;;;;1.10;1.10;;;;;;;1.97;91.54;96345.63;6153680;23;20530;-86
2024/01/17 09:06:09;;;;;;;1.10;1.10;;;;;;;2.18;91.64;96350.47;6156732;23;20006;-86
2024/01/17 09:08:36;;;;;;;1.10;1.10;;;;;;;2.55;90.72;96346.03;6155713;23;20009;-85
2024/01/17 09:11:01;;;;;;;1.10;1.10;;;;;;;2.30;90.70;96340.25;6160601;23;20017;-88
2024/01/17 09:13:27;;;;;;;1.00;1.00;;;;;;;2.29;91.38;96343.72;6159502;23;20048;-86
2024/01/17 09:15:52;;;;;;;1.10;1.10;;;;;;;2.57;91.12;96336.44;6171190;23;20005;-90
2024/01/17 09:18:18;;;;;;;1.10;1.10;;;;;;;2.78;91.28;96329.00;6175493;23;20052;-93
2024/01/17 09:20:45;;;;;;;1.10;1.10;;;;;;;2.72;90.01;96323.56;6151694;23;20061;-91
2024/01/17 09:23:10;;;;;;;1.08;1.08;;;;;;;2.82;90.68;96330.81;6144300;23;20055;-87
2024/01/17 09:25:35;;;;;;;1.00;1.00;;;;;;;2.73;91.07;96322.75;6137159;23;20013;-89
2024/01/17 09:28:01;;;;;;;1.10;1.10;;;;;;;2.94;90.49;96321.41;6161178;23;20016;-89
2024/01/17 09:30:26;;;;;;;1.10;1.10;;;;;;;2.97;90.53;96327.63;6161754;23;20342;-88
2024/01/17 09:32:52;;;;;;;1.00;1.00;;;;;;;2.85;90.93;96313.31;6135658;23;20013;-87
2024/01/17 09:35:19;;;;;;;1.10;1.10;;;;;;;2.93;91.03;96311.72;6159815;23;20009;-87
2024/01/17 09:37:44;;;;;;;1.10;1.10;;;;;;;2.97;91.23;96303.91;6160484;23;20017;-88
2024/01/17 09:40:11;;;;;;;1.00;1.00;;;;;;;2.98;90.93;96299.53;6160058;23;20005;-88
2024/01/17 09:42:37;;;;;;;1.10;1.10;;;;;;;2.97;91.39;96292.47;6161077;23;20013;-88
2024/01/17 09:45:03;;;;;;;1.00;1.00;;;;;;;2.97;91.68;96297.72;6135583;23;20306;-87
2024/01/17 09:47:33;;;;;;;1.10;1.10;;;;;;;2.99;91.27;96285.50;6136484;23;20241;-88
2024/01/17 09:49:59;;;;;;;1.10;1.10;;;;;;;3.12;90.72;96287.50;6138899;23;20001;-87
2024/01/17 09:52:24;;;;;;;1.00;1.00;;;;;;;3.11;90.86;96283.06;6165318;23;20017;-87
2024/01/17 09:54:53;;;;;;;1.00;1.00;;;;;;;3.13;90.90;96280.50;6169909;23;20104;-87
2024/01/17 09:57:25;;;;;;;1.10;1.10;;;;;;;3.17;91.19;96274.41;6171752;23;20013;-92
2024/01/17 09:59:57;;;;;;;1.00;1.00;;;;;;;3.17;91.34;96261.25;6171656;23;20021;-89
2024/01/17 10:02:24;;;;;;;1.10;1.10;;;;;;;3.18;91.08;96261.25;6173277;23;20039;-89
2024/01/17 10:04:49;;;;;;;1.00;1.00;;;;;;;3.19;90.98;96252.50;6133096;23;20378;-86
2024/01/17 10:07:17;;;;;;;1.00;1.00;;;;;;;3.17;91.15;96243.69;6156112;23;20691;-88
2024/01/17 10:09:45;;;;;;;1.00;1.00;;;;;;;3.15;91.28;96232.22;6155795;23;20006;-86
2024/01/17 10:12:13;;;;;;;1.05;1.05;;;;;;;3.17;91.38;96234.91;6156034;23;20048;-87
2024/01/17 10:14:40;;;;;;;1.00;1.00;;;;;;;3.22;91.00;96223.56;6155639;23;20088;-86
2024/01/17 10:17:06;;;;;;;1.10;1.10;;;;;;;3.18;90.79;96226.13;6129906;23;20659;-86
2024/01/17 10:19:33;;;;;;;1.00;1.00;;;;;;;3.22;91.44;96212.16;6129021;23;20005;-87
2024/01/17 10:22:02;;;;;;;1.00;1.00;;;;;;;3.32;90.66;96204.41;6156146;23;20024;-86
2024/01/17 10:24:36;;;;;;;1.10;1.10;;;;;;;3.39;89.91;96197.50;6154945;23;20100;-89
2024/01/17 10:27:02;;;;;;;1.10;1.10;;;;;;;3.40;90.28;96180.81;6130433;23;20080;-89
2024/01/17 10:29:34;;;;;;;1.00;1.00;;;;;;;3.50;89.86;96168.69;6129497;23;20024;-89
2024/01/17 10:31:59;;;;;;;1.10;1.10;;;;;;;3.55;89.80;96161.72;6154207;23;20016;-89
2024/01/17 10:34:31;;;;;;;1.10;1.10;;;;;;;3.62;88.78;96153.03;6129253;23;20013;-89
2024/01/17 10:36:57;;;;;;;1.10;1.10;;;;;;;3.81;88.35;96146.28;6155490;23;20020;-87
2024/01/17 10:39:28;;;;;;;1.10;1.10;;;;;;;3.85;88.66;96137.53;6129867;23;20022;-88
2024/01/17 10:41:56;;;;;;;1.08;1.08;;;;;;;3.82;88.55;96135.72;6155175;23;20017;-89
2024/01/17 10:44:25;;;;;;;1.00;1.00;;;;;;;3.96;87.85;96121.84;6129098;23;20005;-90
2024/01/17 10:46:51;;;;;;;1.02;1.02;;;;;;;3.95;88.29;96120.06;6154353;23;20021;-89
2024/01/17 10:49:17;;;;;;;1.10;1.10;;;;;;;3.92;88.29;96106.84;6154548;23;20044;-90
2024/01/17 10:52:00;;;;;;;1.10;1.10;;;;;;;3.87;88.72;96101.50;6154051;23;20005;-89
2024/01/17 10:54:30;;;;;;;1.10;1.10;;;;;;;3.85;88.84;96098.84;6154495;23;20483;-89
2024/01/17 10:57:00;;;;;;;1.00;1.00;;;;;;;3.88;89.37;96089.19;6152909;23;20072;-90
2024/01/17 10:59:26;;;;;;;1.00;1.00;;;;;;;3.81;89.39;96072.44;6154151;23;20017;-89
2024/01/17 11:01:53;;;;;;;1.00;1.00;;;;;;;3.96;89.09;96072.59;6153045;23;20013;-90
2024/01/17 11:04:37;;;;;;;1.10;1.10;;;;;;;3.95;89.45;96068.22;6156086;23;20009;-90
2024/01/17 11:07:07;;;;;;;1.00;1.00;;;;;;;3.96;89.06;96067.34;6157741;23;20036;-90
2024/01/17 11:09:33;;;;;;;1.10;1.10;;;;;;;3.98;89.55;96062.09;6130546;23;20075;-90
2024/01/17 11:12:01;;;;;;;1.10;1.10;;;;;;;4.07;89.28;96046.34;6156164;23;20096;-92
2024/01/17 11:14:30;;;;;;;1.10;1.10;;;;;;;3.98;90.19;96046.28;6155368;23;20017;-89
2024/01/17 11:16:57;;;;;;;1.00;1.00;;;;;;;4.00;89.77;96042.75;6155918;23;20005;-89
2024/01/17 11:19:23;;;;;;;1.10;1.10;;;;;;;3.98;90.24;96020.78;6154506;23;20088;-89
2024/01/17 11:21:50;;;;;;;1.10;1.10;;;;;;;4.01;89.88;96012.00;6154739;23;20020;-89
2024/01/17 11:24:47;;;;;;;1.00;1.00;;;;;;;4.03;90.07;96015.53;6155929;23;20036;-91
2024/01/17 11:27:25;;;;;;;1.00;1.00;;;;;;;4.09;90.18;96012.97;6156358;23;20025;-90
2024/01/17 11:30:00;;;;;;;1.00;1.00;;;;;;;4.19;89.11;96020.09;6155484;23;20002;-91
2024/01/17 11:33:06;;;;;;;1.10;1.10;;;;;;;4.26;89.41;95997.28;6156401;23;20021;-91
2024/01/17 11:35:49;;;;;;;1.00;1.00;;;;;;;4.10;90.41;96006.81;6125415;23;20013;-92